createdAt,value
2023-11-26T00:00:49.583Z,4.33
2023-11-26T00:03:20.576Z,3.90
2023-11-26T00:05:47.249Z,3.80
2023-11-26T00:08:14.061Z,3.87
2023-11-26T00:10:40.675Z,4.17
2023-11-26T00:13:07.946Z,3.97
2023-11-26T00:15:34.582Z,3.30
2023-11-26T00:18:02.844Z,4.40
2023-11-26T00:20:29.678Z,4.17
2023-11-26T00:22:56.369Z,4.27
2023-11-26T00:25:23.176Z,4.20
2023-11-26T00:27:49.862Z,4.53
2023-11-26T00:30:16.475Z,4.97
2023-11-26T00:32:43.637Z,5.30
2023-11-26T00:35:10.357Z,5.20
2023-11-26T00:37:37.287Z,4.30
2023-11-26T00:40:07.058Z,4.67
2023-11-26T00:42:33.758Z,4.70
2023-11-26T00:45:00.935Z,5.03
2023-11-26T00:47:27.789Z,5.30
2023-11-26T00:49:56.304Z,5.73
2023-11-26T00:52:23.018Z,6.40
2023-11-26T00:54:49.672Z,7.20
2023-11-26T00:57:16.560Z,6.80
2023-11-26T00:59:43.418Z,6.27
2023-11-26T01:02:11.411Z,5.67
2023-11-26T01:04:38.112Z,5.50
2023-11-26T01:07:07.296Z,5.07
2023-11-26T01:09:33.987Z,5.40
2023-11-26T01:12:00.773Z,4.30
2023-11-26T01:14:27.637Z,4.43
2023-11-26T01:16:54.520Z,3.90
2023-11-26T01:19:21.366Z,4.90
2023-11-26T01:21:48.027Z,4.43
2023-11-26T01:24:14.740Z,4.53
2023-11-26T01:26:44.086Z,4.17
2023-11-26T01:29:10.754Z,4.53
2023-11-26T01:31:37.637Z,4.73
2023-11-26T01:34:04.766Z,4.50
2023-11-26T01:36:31.514Z,3.57
2023-11-26T01:38:58.249Z,3.90
2023-11-26T01:41:24.967Z,3.47
2023-11-26T01:43:52.038Z,4.10
2023-11-26T01:46:20.661Z,3.73
2023-11-26T01:48:47.757Z,3.57
2023-11-26T01:51:16.186Z,4.53
2023-11-26T01:53:47.077Z,4.47
2023-11-26T01:56:15.306Z,4.23
2023-11-26T01:58:42.071Z,3.70
2023-11-26T02:01:08.710Z,3.73
2023-11-26T02:03:35.682Z,4.17
2023-11-26T02:06:02.877Z,3.97
2023-11-26T02:08:30.160Z,3.90
2023-11-26T02:10:57.038Z,4.17
2023-11-26T02:13:23.679Z,4.00
2023-11-26T02:15:50.600Z,4.00
2023-11-26T02:18:18.610Z,3.53
2023-11-26T02:20:45.220Z,3.90
2023-11-26T02:23:12.003Z,3.57
2023-11-26T02:25:38.681Z,3.07
2023-11-26T02:28:07.360Z,3.80
2023-11-26T02:30:35.469Z,3.17
2023-11-26T02:33:02.419Z,3.60
2023-11-26T02:35:29.465Z,4.23
2023-11-26T02:37:56.950Z,3.80
2023-11-26T02:40:23.675Z,3.57
2023-11-26T02:42:50.369Z,3.20
2023-11-26T02:45:17.065Z,4.03
2023-11-26T02:47:44.798Z,3.47
2023-11-26T02:50:11.900Z,3.90
2023-11-26T02:52:39.901Z,3.63
2023-11-26T02:55:07.326Z,3.33
2023-11-26T02:57:33.947Z,3.67
2023-11-26T03:00:02.044Z,4.47
2023-11-26T03:02:36.048Z,3.50
2023-11-26T03:05:07.419Z,4.20
2023-11-26T03:07:36.021Z,3.63
2023-11-26T03:10:22.336Z,4.10
2023-11-26T03:13:08.417Z,4.10
2023-11-26T03:15:39.414Z,4.40
2023-11-26T03:18:09.550Z,4.40
2023-11-26T03:20:37.687Z,4.03
2023-11-26T03:23:05.840Z,3.87
2023-11-26T03:25:34.601Z,3.70
2023-11-26T03:28:01.203Z,3.73
2023-11-26T03:30:27.883Z,3.90
2023-11-26T03:32:56.480Z,3.67
2023-11-26T03:35:23.348Z,4.10
2023-11-26T03:37:50.111Z,4.57
2023-11-26T03:40:16.874Z,3.93
2023-11-26T03:42:43.489Z,3.70
2023-11-26T03:45:10.761Z,3.73
2023-11-26T03:47:37.404Z,3.70
2023-11-26T03:50:09.876Z,4.27
2023-11-26T03:52:37.203Z,4.40
2023-11-26T03:55:04.191Z,4.00
2023-11-26T03:57:31.289Z,4.10
2023-11-26T03:59:58.573Z,4.10
2023-11-26T04:02:25.656Z,3.90
2023-11-26T04:04:53.007Z,3.80
2023-11-26T04:07:20.217Z,4.20
2023-11-26T04:09:48.467Z,3.90
2023-11-26T04:12:15.124Z,4.17
2023-11-26T04:14:54.860Z,9.10
2023-11-26T04:17:22.660Z,11.47
2023-11-26T04:19:50.669Z,5.23
2023-11-26T04:22:20.281Z,4.17
2023-11-26T04:24:48.463Z,4.37
2023-11-26T04:27:15.074Z,5.40
2023-11-26T04:29:41.890Z,4.73
2023-11-26T04:32:09.150Z,4.83
2023-11-26T04:34:36.026Z,4.47
2023-11-26T04:37:13.316Z,4.47
2023-11-26T04:39:39.938Z,4.60
2023-11-26T04:42:06.965Z,5.20
2023-11-26T04:44:36.266Z,4.53
2023-11-26T04:47:03.249Z,4.63
2023-11-26T04:49:30.198Z,5.20
2023-11-26T04:51:56.789Z,4.30
2023-11-26T04:54:23.510Z,4.70
2023-11-26T04:56:50.534Z,4.33
2023-11-26T04:59:18.010Z,4.97
2023-11-26T05:01:50.509Z,3.77
2023-11-26T05:04:17.382Z,4.33
2023-11-26T05:06:44.305Z,4.50
2023-11-26T05:09:15.050Z,3.93
2023-11-26T05:11:47.831Z,3.90
2023-11-26T05:14:14.704Z,4.33
2023-11-26T05:16:42.502Z,4.20
2023-11-26T05:19:09.176Z,4.40
2023-11-26T05:21:35.813Z,4.00
2023-11-26T05:24:02.522Z,4.47
2023-11-26T05:26:29.185Z,4.60
2023-11-26T05:28:56.648Z,4.47
2023-11-26T05:31:23.880Z,4.57
2023-11-26T05:33:52.989Z,4.10
2023-11-26T05:36:20.660Z,4.27
2023-11-26T05:38:47.914Z,4.17
2023-11-26T05:41:14.748Z,4.33
2023-11-26T05:43:41.461Z,4.67
2023-11-26T05:46:09.023Z,5.23
2023-11-26T05:48:36.103Z,5.00
2023-11-26T05:51:06.083Z,4.77
2023-11-26T05:53:33.987Z,4.70
2023-11-26T05:56:00.778Z,4.30
2023-11-26T05:58:27.488Z,4.07
2023-11-26T06:00:55.179Z,4.13
2023-11-26T06:03:23.241Z,4.90
2023-11-26T06:05:50.058Z,5.17
2023-11-26T06:08:17.317Z,5.20
2023-11-26T06:10:44.140Z,5.20
2023-11-26T06:13:10.751Z,4.97
2023-11-26T06:15:37.474Z,5.17
2023-11-26T06:18:05.059Z,4.73
2023-11-26T06:20:31.846Z,5.70
2023-11-26T06:22:58.672Z,5.50
2023-11-26T06:25:25.661Z,5.20
2023-11-26T06:27:52.701Z,5.13
2023-11-26T06:30:19.886Z,5.07
2023-11-26T06:32:46.651Z,5.83
2023-11-26T06:35:13.637Z,5.40
2023-11-26T06:37:40.735Z,5.50
2023-11-26T06:40:10.310Z,5.43
2023-11-26T06:42:40.574Z,6.00
2023-11-26T06:45:08.991Z,5.37
2023-11-26T06:47:36.033Z,5.67
2023-11-26T06:50:02.808Z,5.53
2023-11-26T06:52:31.541Z,5.43
2023-11-26T06:54:58.578Z,5.30
2023-11-26T06:57:25.266Z,5.50
2023-11-26T06:59:51.883Z,5.20
2023-11-26T07:02:18.514Z,5.37
2023-11-26T07:04:45.906Z,5.67
2023-11-26T07:07:12.679Z,5.20
2023-11-26T07:09:41.201Z,5.17
2023-11-26T07:12:09.596Z,4.80
2023-11-26T07:14:36.582Z,12.20
2023-11-26T07:17:03.197Z,9.33
2023-11-26T07:19:29.812Z,7.40
2023-11-26T07:21:57.095Z,6.40
2023-11-26T07:24:24.075Z,6.43
2023-11-26T07:26:50.805Z,6.10
2023-11-26T07:29:17.504Z,5.83
2023-11-26T07:31:48.775Z,5.70
2023-11-26T07:34:15.492Z,5.80
2023-11-26T07:36:42.414Z,6.47
2023-11-26T07:39:10.435Z,5.80
2023-11-26T07:41:38.395Z,6.37
2023-11-26T07:44:11.378Z,7.07
2023-11-26T07:46:38.499Z,7.27
2023-11-26T07:49:06.974Z,6.37
2023-11-26T07:51:33.680Z,10.67
2023-11-26T07:54:00.312Z,14.80
2023-11-26T07:56:26.963Z,10.47
2023-11-26T07:58:53.598Z,8.00
2023-11-26T08:01:20.292Z,8.23
2023-11-26T08:03:47.020Z,8.43
2023-11-26T08:06:16.943Z,8.37
2023-11-26T08:08:45.229Z,9.57
2023-11-26T08:11:14.628Z,8.03
2023-11-26T08:13:43.275Z,9.03
2023-11-26T08:16:11.624Z,9.50
2023-11-26T08:18:38.986Z,8.87
2023-11-26T08:21:08.095Z,8.43
2023-11-26T08:23:43.185Z,9.23
2023-11-26T08:26:14.226Z,9.03
2023-11-26T08:28:42.414Z,9.60
2023-11-26T08:31:09.385Z,9.03
2023-11-26T08:33:43.059Z,9.90
2023-11-26T08:36:11.339Z,35.10
2023-11-26T08:38:43.362Z,17.33
2023-11-26T08:41:15.394Z,16.03
2023-11-26T08:43:45.518Z,12.00
2023-11-26T08:46:16.342Z,10.80
2023-11-26T08:48:45.404Z,10.53
2023-11-26T08:51:12.749Z,10.13
2023-11-26T08:53:39.551Z,10.13
2023-11-26T08:56:07.036Z,9.43
2023-11-26T08:58:33.679Z,10.33
2023-11-26T09:01:00.668Z,10.03
2023-11-26T09:03:27.405Z,9.77
2023-11-26T09:05:54.224Z,10.13
2023-11-26T09:08:21.229Z,10.03
2023-11-26T09:10:48.173Z,10.27
2023-11-26T09:13:15.054Z,10.10
2023-11-26T09:15:43.165Z,9.97
2023-11-26T09:18:10.597Z,9.97
2023-11-26T09:20:40.844Z,42.73
2023-11-26T09:23:09.002Z,20.13
2023-11-26T09:25:36.035Z,14.70
2023-11-26T09:28:04.378Z,14.50
2023-11-26T09:30:32.166Z,40.70
2023-11-26T09:32:58.952Z,16.53
2023-11-26T09:35:25.776Z,15.63
2023-11-26T09:37:52.906Z,14.40
2023-11-26T09:40:19.790Z,10.67
2023-11-26T09:42:51.537Z,11.33
2023-11-26T09:45:20.295Z,10.30
2023-11-26T09:47:47.543Z,10.53
2023-11-26T09:50:14.915Z,9.30
2023-11-26T09:52:42.203Z,9.63
2023-11-26T09:55:10.533Z,9.57
2023-11-26T09:57:42.399Z,9.30
2023-11-26T10:00:14.048Z,8.90
2023-11-26T10:02:43.624Z,14.93
2023-11-26T10:05:26.275Z,16.53
2023-11-26T10:07:54.093Z,10.40
2023-11-26T10:10:21.984Z,13.70
2023-11-26T10:12:58.225Z,10.17
2023-11-26T10:15:32.843Z,9.27
2023-11-26T10:18:08.743Z,9.40
2023-11-26T10:20:40.495Z,9.40
2023-11-26T10:23:09.834Z,10.20
2023-11-26T10:25:42.203Z,10.00
2023-11-26T10:28:14.836Z,9.17
2023-11-26T10:30:41.503Z,9.00
2023-11-26T10:33:09.997Z,9.53
2023-11-26T10:35:53.768Z,16.37
2023-11-26T10:38:32.299Z,13.80
2023-11-26T10:41:00.797Z,11.63
2023-11-26T10:43:33.771Z,8.63
2023-11-26T10:46:06.814Z,7.93
2023-11-26T10:48:34.227Z,7.87
2023-11-26T10:51:20.572Z,8.40
2023-11-26T10:54:09.785Z,8.63
2023-11-26T10:56:39.392Z,8.80
2023-11-26T10:59:09.281Z,8.60
2023-11-26T11:01:38.309Z,9.30
2023-11-26T11:04:13.501Z,8.87
2023-11-26T11:06:40.483Z,8.27
2023-11-26T11:09:14.632Z,7.77
2023-11-26T11:11:44.244Z,9.00
2023-11-26T11:14:12.137Z,8.17
2023-11-26T11:16:39.007Z,9.30
2023-11-26T11:19:05.693Z,8.87
2023-11-26T11:21:32.394Z,8.50
2023-11-26T11:23:59.226Z,9.47
2023-11-26T11:26:26.757Z,9.33
2023-11-26T11:28:57.256Z,8.70
2023-11-26T11:31:44.556Z,10.00
2023-11-26T11:34:13.941Z,9.17
2023-11-26T11:36:46.062Z,9.97
2023-11-26T11:39:16.292Z,9.43
2023-11-26T11:42:06.045Z,10.80
2023-11-26T11:44:36.513Z,9.90
2023-11-26T11:47:07.719Z,10.07
2023-11-26T11:49:46.701Z,10.57
2023-11-26T11:52:15.147Z,11.40
2023-11-26T11:55:00.798Z,11.90
2023-11-26T11:57:46.674Z,11.67
2023-11-26T12:00:16.462Z,11.50
2023-11-26T12:02:43.439Z,11.67
2023-11-26T12:05:27.136Z,12.67
2023-11-26T12:07:56.618Z,13.17
2023-11-26T12:10:34.239Z,11.93
2023-11-26T12:13:05.935Z,11.40
2023-11-26T12:15:33.383Z,12.03
2023-11-26T12:18:00.901Z,10.97
2023-11-26T12:20:28.483Z,11.77
2023-11-26T12:22:57.710Z,11.53
2023-11-26T12:25:24.721Z,11.73
2023-11-26T12:28:08.315Z,11.73
2023-11-26T12:30:38.764Z,12.07
2023-11-26T12:33:06.882Z,10.67
2023-11-26T12:35:37.625Z,11.57
2023-11-26T12:38:06.464Z,10.83
2023-11-26T12:40:34.678Z,11.13
2023-11-26T12:43:01.552Z,11.27
2023-11-26T12:45:28.237Z,10.67
2023-11-26T12:47:57.041Z,11.10
2023-11-26T12:50:25.265Z,11.13
2023-11-26T12:52:53.530Z,10.60
2023-11-26T12:55:20.619Z,10.30
2023-11-26T12:57:47.942Z,10.83
2023-11-26T13:00:16.034Z,10.53
2023-11-26T13:02:45.294Z,11.03
2023-11-26T13:05:29.016Z,10.63
2023-11-26T13:08:00.550Z,10.90
2023-11-26T13:10:47.276Z,9.70
2023-11-26T13:13:40.529Z,10.57
2023-11-26T13:16:09.132Z,10.00
2023-11-26T13:18:35.989Z,10.73
2023-11-26T13:21:05.512Z,10.47
2023-11-26T13:23:32.346Z,8.97
2023-11-26T13:26:00.770Z,10.67
2023-11-26T13:28:30.107Z,9.83
2023-11-26T13:30:57.261Z,9.63
2023-11-26T13:33:24.053Z,10.13
2023-11-26T13:35:53.310Z,12.33
2023-11-26T13:38:21.952Z,13.77
2023-11-26T13:40:49.376Z,15.60
2023-11-26T13:43:25.485Z,10.47
2023-11-26T13:45:52.531Z,11.90
2023-11-26T13:48:24.414Z,17.73
2023-11-26T13:50:52.602Z,19.13
2023-11-26T13:53:19.284Z,17.33
2023-11-26T13:55:46.082Z,16.13
2023-11-26T13:58:12.801Z,11.73
2023-11-26T14:00:39.751Z,10.80
2023-11-26T14:03:06.653Z,11.90
2023-11-26T14:05:33.443Z,11.87
2023-11-26T14:08:00.064Z,11.37
2023-11-26T14:10:32.069Z,11.70
2023-11-26T14:13:02.960Z,11.57
2023-11-26T14:15:30.703Z,10.90
2023-11-26T14:17:57.685Z,9.90
2023-11-26T14:20:24.811Z,10.03
2023-11-26T14:22:54.649Z,9.67
2023-11-26T14:25:21.684Z,10.53
2023-11-26T14:27:50.781Z,10.20
2023-11-26T14:30:19.398Z,10.80
2023-11-26T14:32:48.650Z,9.30
2023-11-26T14:35:15.925Z,10.40
2023-11-26T14:37:45.178Z,9.87
2023-11-26T14:40:13.995Z,9.53
2023-11-26T14:42:43.555Z,9.57
2023-11-26T14:45:12.191Z,9.53
2023-11-26T14:47:40.087Z,16.83
2023-11-26T14:50:07.262Z,24.93
2023-11-26T14:52:39.876Z,10.50
2023-11-26T14:55:11.377Z,11.77
2023-11-26T14:57:38.169Z,12.40
2023-11-26T15:00:08.326Z,12.27
2023-11-26T15:02:34.959Z,12.63
2023-11-26T15:05:01.643Z,12.63
2023-11-26T15:07:28.608Z,12.10
2023-11-26T15:09:55.225Z,11.07
2023-11-26T15:12:22.512Z,13.23
2023-11-26T15:14:49.182Z,12.80
2023-11-26T15:17:15.891Z,14.20
2023-11-26T15:19:42.767Z,13.53
2023-11-26T15:22:09.599Z,14.60
2023-11-26T15:24:38.568Z,13.63
2023-11-26T15:27:08.028Z,14.90
2023-11-26T15:29:34.804Z,18.53
2023-11-26T15:32:05.286Z,16.40
2023-11-26T15:34:34.943Z,13.20
2023-11-26T15:37:02.193Z,13.37
2023-11-26T15:39:29.414Z,12.27
2023-11-26T15:41:57.898Z,12.43
2023-11-26T15:44:25.446Z,13.23
2023-11-26T15:46:53.101Z,17.63
2023-11-26T15:49:20.241Z,20.23
2023-11-26T15:51:47.240Z,14.80
2023-11-26T15:54:14.341Z,14.07
2023-11-26T15:56:41.012Z,14.13
2023-11-26T15:59:08.093Z,13.67
2023-11-26T16:01:34.844Z,14.13
2023-11-26T16:04:02.464Z,16.20
2023-11-26T16:06:30.095Z,14.90
2023-11-26T16:09:01.659Z,16.37
2023-11-26T16:11:28.347Z,15.40
2023-11-26T16:13:56.424Z,16.60
2023-11-26T16:16:23.453Z,16.43
2023-11-26T16:18:52.658Z,17.97
2023-11-26T16:21:20.150Z,17.00
2023-11-26T16:23:46.777Z,15.70
2023-11-26T16:26:13.394Z,20.37
2023-11-26T16:28:40.275Z,17.87
2023-11-26T16:31:07.918Z,16.97
2023-11-26T16:33:49.939Z,18.07
2023-11-26T16:36:23.656Z,17.77
2023-11-26T16:38:50.566Z,15.67
2023-11-26T16:41:20.112Z,15.13
2023-11-26T16:43:49.449Z,14.50
2023-11-26T16:46:18.083Z,14.47
2023-11-26T16:48:46.182Z,14.57
2023-11-26T16:51:13.973Z,15.13
2023-11-26T16:53:40.660Z,15.87
2023-11-26T16:56:09.045Z,14.57
2023-11-26T16:58:36.197Z,14.20
2023-11-26T17:01:04.701Z,14.07
2023-11-26T17:03:32.629Z,13.53
2023-11-26T17:06:00.427Z,13.03
2023-11-26T17:08:30.857Z,12.60
2023-11-26T17:10:59.002Z,13.07
2023-11-26T17:13:31.707Z,12.73
2023-11-26T17:15:58.765Z,15.10
2023-11-26T17:18:25.591Z,18.43
2023-11-26T17:20:52.278Z,14.63
2023-11-26T17:23:19.364Z,14.17
2023-11-26T17:25:51.698Z,14.17
2023-11-26T17:28:20.342Z,14.80
2023-11-26T17:30:50.621Z,14.77
2023-11-26T17:33:19.433Z,15.17
2023-11-26T17:35:46.918Z,15.20
2023-11-26T17:38:13.849Z,16.47
2023-11-26T17:40:41.019Z,17.93
2023-11-26T17:43:08.200Z,17.70
2023-11-26T17:45:35.324Z,18.83
2023-11-26T17:48:02.320Z,18.07
2023-11-26T17:50:30.075Z,19.97
2023-11-26T17:53:07.135Z,29.50
2023-11-26T17:55:37.519Z,17.43
2023-11-26T17:58:04.542Z,16.43
2023-11-26T18:00:33.054Z,17.23
2023-11-26T18:03:00.191Z,18.13
2023-11-26T18:05:27.236Z,16.90
2023-11-26T18:07:56.443Z,14.93
2023-11-26T18:10:23.671Z,16.40
2023-11-26T18:12:50.858Z,17.30
2023-11-26T18:15:20.581Z,16.67
2023-11-26T18:17:47.875Z,15.83
2023-11-26T18:20:18.491Z,15.13
2023-11-26T18:22:45.456Z,14.57
2023-11-26T18:25:13.388Z,14.27
2023-11-26T18:27:40.378Z,14.97
2023-11-26T18:30:07.820Z,14.97
2023-11-26T18:32:34.721Z,15.93
2023-11-26T18:35:01.337Z,14.63
2023-11-26T18:37:29.511Z,13.87
2023-11-26T18:39:57.000Z,13.70
2023-11-26T18:42:23.733Z,13.73
2023-11-26T18:44:50.575Z,13.20
2023-11-26T18:47:17.804Z,14.93
2023-11-26T18:49:44.647Z,14.67
2023-11-26T18:52:16.548Z,14.77
2023-11-26T18:54:44.799Z,14.23
2023-11-26T18:57:11.773Z,16.33
2023-11-26T18:59:39.845Z,15.83
2023-11-26T19:02:08.110Z,13.00
2023-11-26T19:04:37.383Z,13.00
2023-11-26T19:07:05.195Z,12.87
2023-11-26T19:09:31.909Z,12.77
2023-11-26T19:11:58.970Z,13.83
2023-11-26T19:14:25.627Z,12.17
2023-11-26T19:16:53.076Z,12.27
2023-11-26T19:19:20.446Z,11.93
2023-11-26T19:21:47.294Z,11.07
2023-11-26T19:24:14.239Z,10.90
2023-11-26T19:26:40.836Z,12.67
2023-11-26T19:29:07.727Z,12.57
2023-11-26T19:31:34.460Z,11.20
2023-11-26T19:34:01.431Z,11.13
2023-11-26T19:36:28.300Z,10.33
2023-11-26T19:38:55.095Z,10.53
2023-11-26T19:41:22.484Z,11.10
2023-11-26T19:43:49.615Z,11.50
2023-11-26T19:46:17.837Z,12.13
2023-11-26T19:48:47.289Z,11.73
2023-11-26T19:51:19.725Z,11.53
2023-11-26T19:53:47.022Z,11.23
2023-11-26T19:56:16.057Z,10.83
2023-11-26T19:58:44.195Z,10.70
2023-11-26T20:01:11.916Z,10.77
2023-11-26T20:03:39.171Z,11.50
2023-11-26T20:06:06.592Z,10.30
2023-11-26T20:08:33.477Z,10.27
2023-11-26T20:11:01.917Z,8.33
2023-11-26T20:13:29.589Z,10.40
2023-11-26T20:15:57.531Z,8.93
2023-11-26T20:18:24.980Z,9.87
2023-11-26T20:20:52.219Z,10.00
2023-11-26T20:23:18.987Z,10.00
2023-11-26T20:25:46.100Z,9.83
2023-11-26T20:28:12.970Z,9.97
2023-11-26T20:30:46.851Z,9.77
2023-11-26T20:33:16.606Z,7.97
2023-11-26T20:35:43.499Z,7.30
2023-11-26T20:38:10.374Z,7.70
2023-11-26T20:40:37.127Z,7.97
2023-11-26T20:43:04.477Z,7.83
2023-11-26T20:45:31.216Z,6.87
2023-11-26T20:47:58.210Z,7.00
2023-11-26T20:50:25.004Z,8.07
2023-11-26T20:52:51.699Z,7.03
2023-11-26T20:55:18.508Z,7.40
2023-11-26T20:57:45.986Z,6.83
2023-11-26T21:00:14.334Z,6.83
2023-11-26T21:02:44.676Z,7.97
2023-11-26T21:05:11.862Z,7.87
2023-11-26T21:07:38.735Z,7.00
2023-11-26T21:10:09.579Z,6.83
2023-11-26T21:12:36.468Z,8.20
2023-11-26T21:15:06.040Z,7.93
2023-11-26T21:17:36.449Z,7.80
2023-11-26T21:20:04.125Z,7.73
2023-11-26T21:22:31.626Z,8.80
2023-11-26T21:24:58.333Z,7.60
2023-11-26T21:27:25.339Z,7.33
2023-11-26T21:29:52.023Z,7.37
2023-11-26T21:32:19.748Z,7.07
2023-11-26T21:34:46.500Z,7.93
2023-11-26T21:37:14.669Z,6.83
2023-11-26T21:39:45.240Z,6.57
2023-11-26T21:42:16.064Z,6.27
2023-11-26T21:44:42.813Z,5.73
2023-11-26T21:47:09.631Z,6.17
2023-11-26T21:49:36.604Z,5.93
2023-11-26T21:52:04.688Z,5.87
2023-11-26T21:54:31.664Z,5.80
2023-11-26T21:56:58.409Z,6.03
2023-11-26T21:59:25.499Z,5.30
2023-11-26T22:01:52.571Z,6.33
2023-11-26T22:04:19.877Z,5.00
2023-11-26T22:06:47.532Z,6.13
2023-11-26T22:09:14.845Z,5.43
2023-11-26T22:11:41.800Z,6.17
2023-11-26T22:14:08.465Z,5.67
2023-11-26T22:16:35.366Z,5.93
2023-11-26T22:19:05.105Z,5.93
2023-11-26T22:21:32.977Z,5.23
2023-11-26T22:23:59.582Z,5.57
2023-11-26T22:26:26.481Z,5.80
2023-11-26T22:28:53.121Z,6.17
2023-11-26T22:31:21.950Z,5.53
2023-11-26T22:33:48.935Z,5.93
2023-11-26T22:36:23.181Z,5.23
2023-11-26T22:38:50.494Z,5.13
2023-11-26T22:41:26.079Z,5.17
2023-11-26T22:43:53.605Z,4.80
2023-11-26T22:46:24.766Z,6.07
2023-11-26T22:48:54.125Z,6.10
2023-11-26T22:51:21.543Z,6.23
2023-11-26T22:53:48.552Z,6.60
2023-11-26T22:56:15.981Z,7.30
2023-11-26T22:58:43.729Z,8.03
2023-11-26T23:01:11.616Z,6.93
2023-11-26T23:03:39.190Z,6.80
2023-11-26T23:06:10.171Z,6.87
2023-11-26T23:08:37.471Z,5.90
2023-11-26T23:11:04.504Z,6.63
2023-11-26T23:13:33.505Z,6.70
2023-11-26T23:16:00.495Z,6.40
2023-11-26T23:18:27.514Z,5.93
2023-11-26T23:20:56.997Z,5.33
2023-11-26T23:23:34.869Z,4.37
2023-11-26T23:26:09.755Z,4.73
2023-11-26T23:28:36.697Z,5.00
2023-11-26T23:31:03.705Z,4.37
2023-11-26T23:33:30.527Z,5.33
2023-11-26T23:35:57.607Z,5.03
2023-11-26T23:38:24.341Z,5.00
2023-11-26T23:40:51.716Z,4.33
2023-11-26T23:43:19.213Z,4.57
2023-11-26T23:45:46.458Z,4.63
2023-11-26T23:48:13.417Z,4.30
2023-11-26T23:50:40.222Z,4.30
2023-11-26T23:53:07.976Z,4.40
2023-11-26T23:55:37.895Z,4.77
2023-11-26T23:58:05.016Z,4.17
